sensor_id;sensor_type;location;lat;lon;timestamp;temperature;humidity
74822;DHT22;63353;48.702;8.884;2024-02-23T00:01:55;3.70;99.90
74822;DHT22;63353;48.702;8.884;2024-02-23T00:04:21;3.80;99.90
74822;DHT22;63353;48.702;8.884;2024-02-23T00:06:46;4.00;99.90
74822;DHT22;63353;48.702;8.884;2024-02-23T00:09:12;3.90;99.90
74822;DHT22;63353;48.702;8.884;2024-02-23T00:11:41;3.90;99.90
74822;DHT22;63353;48.702;8.884;2024-02-23T00:14:13;3.80;99.90
74822;DHT22;63353;48.702;8.884;2024-02-23T00:16:41;3.80;99.90
74822;DHT22;63353;48.702;8.884;2024-02-23T00:19:08;3.80;99.90
74822;DHT22;63353;48.702;8.884;2024-02-23T00:21:37;3.80;99.90
74822;DHT22;63353;48.702;8.884;2024-02-23T00:24:04;3.90;99.90
74822;DHT22;63353;48.702;8.884;2024-02-23T00:26:30;3.90;99.90
74822;DHT22;63353;48.702;8.884;2024-02-23T00:28:56;3.90;99.90
74822;DHT22;63353;48.702;8.884;2024-02-23T00:31:21;3.90;99.90
74822;DHT22;63353;48.702;8.884;2024-02-23T00:33:47;3.90;99.90
74822;DHT22;63353;48.702;8.884;2024-02-23T00:36:13;4.00;99.90
74822;DHT22;63353;48.702;8.884;2024-02-23T00:38:39;4.00;99.90
74822;DHT22;63353;48.702;8.884;2024-02-23T00:41:05;4.00;99.90
74822;DHT22;63353;48.702;8.884;2024-02-23T00:43:40;4.00;99.90
74822;DHT22;63353;48.702;8.884;2024-02-23T00:46:09;4.00;99.90
74822;DHT22;63353;48.702;8.884;2024-02-23T00:48:35;4.00;99.90
74822;DHT22;63353;48.702;8.884;2024-02-23T00:51:02;4.00;99.90
74822;DHT22;63353;48.702;8.884;2024-02-23T00:53:28;4.00;99.90
74822;DHT22;63353;48.702;8.884;2024-02-23T00:55:54;4.00;99.90
74822;DHT22;63353;48.702;8.884;2024-02-23T00:58:20;4.00;99.90
74822;DHT22;63353;48.702;8.884;2024-02-23T01:00:45;4.00;99.90
74822;DHT22;63353;48.702;8.884;2024-02-23T01:03:11;4.00;99.90
74822;DHT22;63353;48.702;8.884;2024-02-23T01:05:37;4.00;99.90
74822;DHT22;63353;48.702;8.884;2024-02-23T01:08:04;4.00;99.90
74822;DHT22;63353;48.702;8.884;2024-02-23T01:10:29;4.10;99.90
74822;DHT22;63353;48.702;8.884;2024-02-23T01:12:55;4.10;99.90
74822;DHT22;63353;48.702;8.884;2024-02-23T01:15:21;4.00;99.90
74822;DHT22;63353;48.702;8.884;2024-02-23T01:17:46;4.00;99.90
74822;DHT22;63353;48.702;8.884;2024-02-23T01:20:12;4.00;99.90
74822;DHT22;63353;48.702;8.884;2024-02-23T01:22:38;3.90;99.90
74822;DHT22;63353;48.702;8.884;2024-02-23T01:25:05;4.00;99.90
74822;DHT22;63353;48.702;8.884;2024-02-23T01:27:30;3.90;99.90
74822;DHT22;63353;48.702;8.884;2024-02-23T01:29:56;3.90;99.90
74822;DHT22;63353;48.702;8.884;2024-02-23T01:32:22;3.90;99.90
74822;DHT22;63353;48.702;8.884;2024-02-23T01:34:48;3.90;99.90
74822;DHT22;63353;48.702;8.884;2024-02-23T01:37:13;3.90;99.90
74822;DHT22;63353;48.702;8.884;2024-02-23T01:39:39;3.90;99.90
74822;DHT22;63353;48.702;8.884;2024-02-23T01:42:05;3.90;99.90
74822;DHT22;63353;48.702;8.884;2024-02-23T01:44:30;3.90;99.90
74822;DHT22;63353;48.702;8.884;2024-02-23T01:46:56;3.90;99.90
74822;DHT22;63353;48.702;8.884;2024-02-23T01:49:22;4.00;99.90
74822;DHT22;63353;48.702;8.884;2024-02-23T01:51:49;4.00;99.90
74822;DHT22;63353;48.702;8.884;2024-02-23T01:54:16;4.00;99.90
74822;DHT22;63353;48.702;8.884;2024-02-23T01:56:42;4.00;99.90
74822;DHT22;63353;48.702;8.884;2024-02-23T01:59:09;4.00;99.90
74822;DHT22;63353;48.702;8.884;2024-02-23T02:01:36;4.20;99.90
74822;DHT22;63353;48.702;8.884;2024-02-23T02:04:01;4.10;99.90
74822;DHT22;63353;48.702;8.884;2024-02-23T02:06:27;4.10;99.90
74822;DHT22;63353;48.702;8.884;2024-02-23T02:08:53;4.10;99.90
74822;DHT22;63353;48.702;8.884;2024-02-23T02:11:19;4.10;99.90
74822;DHT22;63353;48.702;8.884;2024-02-23T02:13:44;4.10;99.90
74822;DHT22;63353;48.702;8.884;2024-02-23T02:16:11;4.20;99.90
74822;DHT22;63353;48.702;8.884;2024-02-23T02:18:36;4.00;99.90
74822;DHT22;63353;48.702;8.884;2024-02-23T02:21:02;4.00;99.90
74822;DHT22;63353;48.702;8.884;2024-02-23T02:23:28;4.00;99.90
74822;DHT22;63353;48.702;8.884;2024-02-23T02:25:55;4.00;99.90
74822;DHT22;63353;48.702;8.884;2024-02-23T02:28:22;4.00;99.90
74822;DHT22;63353;48.702;8.884;2024-02-23T02:30:49;4.00;99.90
74822;DHT22;63353;48.702;8.884;2024-02-23T02:33:15;4.00;99.90
74822;DHT22;63353;48.702;8.884;2024-02-23T02:35:40;3.90;99.90
74822;DHT22;63353;48.702;8.884;2024-02-23T02:38:06;3.90;99.90
74822;DHT22;63353;48.702;8.884;2024-02-23T02:40:32;4.00;99.90
74822;DHT22;63353;48.702;8.884;2024-02-23T02:42:58;3.90;99.90
74822;DHT22;63353;48.702;8.884;2024-02-23T02:45:23;3.80;99.90
74822;DHT22;63353;48.702;8.884;2024-02-23T02:47:49;3.80;99.90
74822;DHT22;63353;48.702;8.884;2024-02-23T02:50:15;3.80;99.90
74822;DHT22;63353;48.702;8.884;2024-02-23T02:52:41;3.80;99.90
74822;DHT22;63353;48.702;8.884;2024-02-23T02:55:07;3.70;99.90
74822;DHT22;63353;48.702;8.884;2024-02-23T02:57:33;3.70;99.90
74822;DHT22;63353;48.702;8.884;2024-02-23T03:00:04;3.70;99.90
74822;DHT22;63353;48.702;8.884;2024-02-23T03:02:33;3.70;99.90
74822;DHT22;63353;48.702;8.884;2024-02-23T03:05:00;3.70;99.90
74822;DHT22;63353;48.702;8.884;2024-02-23T03:07:25;3.60;99.90
74822;DHT22;63353;48.702;8.884;2024-02-23T03:09:51;3.60;99.90
74822;DHT22;63353;48.702;8.884;2024-02-23T03:12:17;3.60;99.90
74822;DHT22;63353;48.702;8.884;2024-02-23T03:14:43;3.60;99.90
74822;DHT22;63353;48.702;8.884;2024-02-23T03:17:09;3.50;99.90
74822;DHT22;63353;48.702;8.884;2024-02-23T03:19:36;3.50;99.90
74822;DHT22;63353;48.702;8.884;2024-02-23T03:22:01;3.50;99.90
74822;DHT22;63353;48.702;8.884;2024-02-23T03:24:27;3.50;99.90
74822;DHT22;63353;48.702;8.884;2024-02-23T03:26:53;3.50;99.90
74822;DHT22;63353;48.702;8.884;2024-02-23T03:29:18;3.40;99.90
74822;DHT22;63353;48.702;8.884;2024-02-23T03:31:44;3.40;99.90
74822;DHT22;63353;48.702;8.884;2024-02-23T03:34:10;3.40;99.90
74822;DHT22;63353;48.702;8.884;2024-02-23T03:36:36;3.40;99.90
74822;DHT22;63353;48.702;8.884;2024-02-23T03:39:02;3.40;99.90
74822;DHT22;63353;48.702;8.884;2024-02-23T03:41:28;3.30;99.90
74822;DHT22;63353;48.702;8.884;2024-02-23T03:43:53;3.30;99.90
74822;DHT22;63353;48.702;8.884;2024-02-23T03:46:19;3.30;99.90
74822;DHT22;63353;48.702;8.884;2024-02-23T03:48:45;3.30;99.90
74822;DHT22;63353;48.702;8.884;2024-02-23T03:51:12;3.30;99.90
74822;DHT22;63353;48.702;8.884;2024-02-23T03:53:37;3.20;99.90
74822;DHT22;63353;48.702;8.884;2024-02-23T03:56:03;3.30;99.90
74822;DHT22;63353;48.702;8.884;2024-02-23T03:58:29;3.30;99.90
74822;DHT22;63353;48.702;8.884;2024-02-23T04:00:54;3.30;99.90
74822;DHT22;63353;48.702;8.884;2024-02-23T04:03:20;3.30;99.90
74822;DHT22;63353;48.702;8.884;2024-02-23T04:05:46;3.40;99.90
74822;DHT22;63353;48.702;8.884;2024-02-23T04:08:12;3.30;99.90
74822;DHT22;63353;48.702;8.884;2024-02-23T04:10:38;3.30;99.90
74822;DHT22;63353;48.702;8.884;2024-02-23T04:13:04;3.30;99.90
74822;DHT22;63353;48.702;8.884;2024-02-23T04:15:29;3.20;99.90
74822;DHT22;63353;48.702;8.884;2024-02-23T04:17:55;3.30;99.90
74822;DHT22;63353;48.702;8.884;2024-02-23T04:20:21;3.20;99.90
74822;DHT22;63353;48.702;8.884;2024-02-23T04:22:46;3.30;99.90
74822;DHT22;63353;48.702;8.884;2024-02-23T04:25:12;3.10;99.90
74822;DHT22;63353;48.702;8.884;2024-02-23T04:27:38;3.00;99.90
74822;DHT22;63353;48.702;8.884;2024-02-23T04:30:04;3.00;99.90
74822;DHT22;63353;48.702;8.884;2024-02-23T04:32:31;3.00;99.90
74822;DHT22;63353;48.702;8.884;2024-02-23T04:34:56;2.90;99.90
74822;DHT22;63353;48.702;8.884;2024-02-23T04:37:23;2.90;99.90
74822;DHT22;63353;48.702;8.884;2024-02-23T04:39:48;2.80;99.90
74822;DHT22;63353;48.702;8.884;2024-02-23T04:42:14;2.70;99.90
74822;DHT22;63353;48.702;8.884;2024-02-23T04:44:41;2.60;99.90
74822;DHT22;63353;48.702;8.884;2024-02-23T04:47:07;2.50;99.90
74822;DHT22;63353;48.702;8.884;2024-02-23T04:49:34;2.60;99.90
74822;DHT22;63353;48.702;8.884;2024-02-23T04:52:00;2.50;99.90
74822;DHT22;63353;48.702;8.884;2024-02-23T04:54:25;2.50;99.90
74822;DHT22;63353;48.702;8.884;2024-02-23T04:56:51;2.40;99.90
74822;DHT22;63353;48.702;8.884;2024-02-23T04:59:17;2.40;99.90
74822;DHT22;63353;48.702;8.884;2024-02-23T05:01:42;2.20;99.90
74822;DHT22;63353;48.702;8.884;2024-02-23T05:04:08;2.10;99.90
74822;DHT22;63353;48.702;8.884;2024-02-23T05:06:34;2.00;99.90
74822;DHT22;63353;48.702;8.884;2024-02-23T05:09:01;2.00;99.90
74822;DHT22;63353;48.702;8.884;2024-02-23T05:11:27;1.90;99.90
74822;DHT22;63353;48.702;8.884;2024-02-23T05:13:52;1.90;99.90
74822;DHT22;63353;48.702;8.884;2024-02-23T05:16:18;1.70;99.90
74822;DHT22;63353;48.702;8.884;2024-02-23T05:18:44;1.60;99.90
74822;DHT22;63353;48.702;8.884;2024-02-23T05:21:15;1.60;99.90
74822;DHT22;63353;48.702;8.884;2024-02-23T05:23:41;1.60;99.90
74822;DHT22;63353;48.702;8.884;2024-02-23T05:26:07;1.50;99.90
74822;DHT22;63353;48.702;8.884;2024-02-23T05:28:33;1.60;99.90
74822;DHT22;63353;48.702;8.884;2024-02-23T05:30:58;1.60;99.90
74822;DHT22;63353;48.702;8.884;2024-02-23T05:33:24;1.60;99.90
74822;DHT22;63353;48.702;8.884;2024-02-23T05:35:50;1.50;99.90
74822;DHT22;63353;48.702;8.884;2024-02-23T05:38:16;1.50;99.90
74822;DHT22;63353;48.702;8.884;2024-02-23T05:40:42;1.40;99.90
74822;DHT22;63353;48.702;8.884;2024-02-23T05:43:08;1.40;99.90
74822;DHT22;63353;48.702;8.884;2024-02-23T05:45:35;1.40;99.90
74822;DHT22;63353;48.702;8.884;2024-02-23T05:48:01;1.40;99.90
74822;DHT22;63353;48.702;8.884;2024-02-23T05:50:26;1.20;99.90
74822;DHT22;63353;48.702;8.884;2024-02-23T05:52:52;1.10;99.90
74822;DHT22;63353;48.702;8.884;2024-02-23T05:55:19;1.10;99.90
74822;DHT22;63353;48.702;8.884;2024-02-23T05:57:46;1.00;99.90
74822;DHT22;63353;48.702;8.884;2024-02-23T06:00:12;0.90;99.90
74822;DHT22;63353;48.702;8.884;2024-02-23T06:02:38;1.00;99.90
74822;DHT22;63353;48.702;8.884;2024-02-23T06:05:05;0.90;99.90
74822;DHT22;63353;48.702;8.884;2024-02-23T06:07:33;1.00;99.90
74822;DHT22;63353;48.702;8.884;2024-02-23T06:10:00;1.00;99.90
74822;DHT22;63353;48.702;8.884;2024-02-23T06:12:26;1.20;99.90
74822;DHT22;63353;48.702;8.884;2024-02-23T06:14:52;1.30;99.90
74822;DHT22;63353;48.702;8.884;2024-02-23T06:17:18;1.20;99.90
74822;DHT22;63353;48.702;8.884;2024-02-23T06:19:44;1.30;99.90
74822;DHT22;63353;48.702;8.884;2024-02-23T06:22:09;1.20;99.90
74822;DHT22;63353;48.702;8.884;2024-02-23T06:24:38;1.20;99.90
74822;DHT22;63353;48.702;8.884;2024-02-23T06:27:04;1.30;99.90
74822;DHT22;63353;48.702;8.884;2024-02-23T06:29:30;1.20;99.90
74822;DHT22;63353;48.702;8.884;2024-02-23T06:31:56;1.10;99.90
74822;DHT22;63353;48.702;8.884;2024-02-23T06:34:22;1.00;99.90
74822;DHT22;63353;48.702;8.884;2024-02-23T06:36:47;1.20;99.90
74822;DHT22;63353;48.702;8.884;2024-02-23T06:39:13;1.20;99.90
74822;DHT22;63353;48.702;8.884;2024-02-23T06:41:43;1.20;99.90
74822;DHT22;63353;48.702;8.884;2024-02-23T06:44:09;1.30;99.90
74822;DHT22;63353;48.702;8.884;2024-02-23T06:46:34;1.40;99.90
74822;DHT22;63353;48.702;8.884;2024-02-23T06:49:00;1.40;99.90
74822;DHT22;63353;48.702;8.884;2024-02-23T06:51:25;1.30;99.90
74822;DHT22;63353;48.702;8.884;2024-02-23T06:53:51;1.50;99.90
74822;DHT22;63353;48.702;8.884;2024-02-23T06:56:17;1.50;99.90
74822;DHT22;63353;48.702;8.884;2024-02-23T06:58:43;1.50;99.90
74822;DHT22;63353;48.702;8.884;2024-02-23T07:01:08;1.60;99.90
74822;DHT22;63353;48.702;8.884;2024-02-23T07:03:38;1.60;99.90
74822;DHT22;63353;48.702;8.884;2024-02-23T07:06:04;1.70;99.90
74822;DHT22;63353;48.702;8.884;2024-02-23T07:08:30;1.70;99.90
74822;DHT22;63353;48.702;8.884;2024-02-23T07:10:56;1.70;99.90
74822;DHT22;63353;48.702;8.884;2024-02-23T07:13:21;1.80;99.90
74822;DHT22;63353;48.702;8.884;2024-02-23T07:15:47;1.90;99.90
74822;DHT22;63353;48.702;8.884;2024-02-23T07:18:13;1.90;99.90
74822;DHT22;63353;48.702;8.884;2024-02-23T07:20:38;2.10;99.90
74822;DHT22;63353;48.702;8.884;2024-02-23T07:23:04;2.20;99.90
74822;DHT22;63353;48.702;8.884;2024-02-23T07:25:30;2.20;99.90
74822;DHT22;63353;48.702;8.884;2024-02-23T07:27:56;2.30;99.90
74822;DHT22;63353;48.702;8.884;2024-02-23T07:30:22;2.30;99.90
74822;DHT22;63353;48.702;8.884;2024-02-23T07:32:48;2.40;99.90
74822;DHT22;63353;48.702;8.884;2024-02-23T07:35:14;2.50;99.90
74822;DHT22;63353;48.702;8.884;2024-02-23T07:37:40;2.50;99.90
74822;DHT22;63353;48.702;8.884;2024-02-23T07:40:06;2.50;99.90
74822;DHT22;63353;48.702;8.884;2024-02-23T07:42:32;2.50;99.90
74822;DHT22;63353;48.702;8.884;2024-02-23T07:45:04;2.50;99.90
74822;DHT22;63353;48.702;8.884;2024-02-23T07:47:30;2.50;99.90
74822;DHT22;63353;48.702;8.884;2024-02-23T07:49:57;2.40;99.90
74822;DHT22;63353;48.702;8.884;2024-02-23T07:52:23;2.40;99.90
74822;DHT22;63353;48.702;8.884;2024-02-23T07:54:50;2.40;99.90
74822;DHT22;63353;48.702;8.884;2024-02-23T07:57:20;2.30;99.90
74822;DHT22;63353;48.702;8.884;2024-02-23T07:59:46;2.30;99.90
74822;DHT22;63353;48.702;8.884;2024-02-23T08:02:12;2.20;99.90
74822;DHT22;63353;48.702;8.884;2024-02-23T08:04:37;2.30;99.90
74822;DHT22;63353;48.702;8.884;2024-02-23T08:07:03;2.20;99.90
74822;DHT22;63353;48.702;8.884;2024-02-23T08:09:29;2.30;99.90
74822;DHT22;63353;48.702;8.884;2024-02-23T08:11:55;2.20;99.90
74822;DHT22;63353;48.702;8.884;2024-02-23T08:14:21;2.30;99.90
74822;DHT22;63353;48.702;8.884;2024-02-23T08:16:46;2.30;99.90
74822;DHT22;63353;48.702;8.884;2024-02-23T08:19:12;2.30;99.90
74822;DHT22;63353;48.702;8.884;2024-02-23T08:21:38;2.40;99.90
74822;DHT22;63353;48.702;8.884;2024-02-23T08:24:04;2.50;99.90
74822;DHT22;63353;48.702;8.884;2024-02-23T08:26:30;2.60;99.90
74822;DHT22;63353;48.702;8.884;2024-02-23T08:28:56;2.70;99.90
74822;DHT22;63353;48.702;8.884;2024-02-23T08:31:21;2.70;99.90
74822;DHT22;63353;48.702;8.884;2024-02-23T08:33:47;2.80;99.90
74822;DHT22;63353;48.702;8.884;2024-02-23T08:36:13;2.90;99.90
74822;DHT22;63353;48.702;8.884;2024-02-23T08:38:38;2.80;99.90
74822;DHT22;63353;48.702;8.884;2024-02-23T08:41:04;2.80;99.90
74822;DHT22;63353;48.702;8.884;2024-02-23T08:43:30;3.00;99.90
74822;DHT22;63353;48.702;8.884;2024-02-23T08:45:56;3.10;99.90
74822;DHT22;63353;48.702;8.884;2024-02-23T08:48:21;3.20;99.90
74822;DHT22;63353;48.702;8.884;2024-02-23T08:50:47;3.20;99.90
74822;DHT22;63353;48.702;8.884;2024-02-23T08:53:12;3.20;99.90
74822;DHT22;63353;48.702;8.884;2024-02-23T08:55:38;3.30;99.90
74822;DHT22;63353;48.702;8.884;2024-02-23T08:58:04;3.40;99.90
74822;DHT22;63353;48.702;8.884;2024-02-23T09:00:31;3.50;99.90
74822;DHT22;63353;48.702;8.884;2024-02-23T09:02:57;3.60;99.90
74822;DHT22;63353;48.702;8.884;2024-02-23T09:05:23;3.70;99.90
74822;DHT22;63353;48.702;8.884;2024-02-23T09:07:48;3.90;99.90
74822;DHT22;63353;48.702;8.884;2024-02-23T09:10:14;4.30;99.90
74822;DHT22;63353;48.702;8.884;2024-02-23T09:12:40;4.70;99.90
74822;DHT22;63353;48.702;8.884;2024-02-23T09:15:05;5.00;99.90
74822;DHT22;63353;48.702;8.884;2024-02-23T09:17:31;5.30;99.90
74822;DHT22;63353;48.702;8.884;2024-02-23T09:19:57;5.40;99.90
74822;DHT22;63353;48.702;8.884;2024-02-23T09:22:23;5.30;99.90
74822;DHT22;63353;48.702;8.884;2024-02-23T09:24:49;5.10;99.90
74822;DHT22;63353;48.702;8.884;2024-02-23T09:27:14;4.80;99.90
74822;DHT22;63353;48.702;8.884;2024-02-23T09:29:41;4.60;99.90
74822;DHT22;63353;48.702;8.884;2024-02-23T09:32:09;4.50;99.90
74822;DHT22;63353;48.702;8.884;2024-02-23T09:34:35;4.50;99.90
74822;DHT22;63353;48.702;8.884;2024-02-23T09:37:01;4.60;99.90
74822;DHT22;63353;48.702;8.884;2024-02-23T09:39:27;4.90;99.90
74822;DHT22;63353;48.702;8.884;2024-02-23T09:41:55;4.80;99.90
74822;DHT22;63353;48.702;8.884;2024-02-23T09:44:22;4.70;99.90
74822;DHT22;63353;48.702;8.884;2024-02-23T09:46:48;4.80;99.90
74822;DHT22;63353;48.702;8.884;2024-02-23T09:49:15;4.90;99.90
74822;DHT22;63353;48.702;8.884;2024-02-23T09:51:43;4.80;99.90
74822;DHT22;63353;48.702;8.884;2024-02-23T09:54:09;4.60;99.90
74822;DHT22;63353;48.702;8.884;2024-02-23T09:56:35;4.50;99.90
74822;DHT22;63353;48.702;8.884;2024-02-23T09:59:03;4.50;99.90
74822;DHT22;63353;48.702;8.884;2024-02-23T10:01:32;4.60;99.90
74822;DHT22;63353;48.702;8.884;2024-02-23T10:04:00;4.60;99.90
74822;DHT22;63353;48.702;8.884;2024-02-23T10:06:27;4.70;99.90
74822;DHT22;63353;48.702;8.884;2024-02-23T10:08:53;4.70;99.90
74822;DHT22;63353;48.702;8.884;2024-02-23T10:11:22;4.60;99.90
74822;DHT22;63353;48.702;8.884;2024-02-23T10:13:49;4.60;99.90
74822;DHT22;63353;48.702;8.884;2024-02-23T10:16:16;4.60;99.90
74822;DHT22;63353;48.702;8.884;2024-02-23T10:18:42;4.60;99.90
74822;DHT22;63353;48.702;8.884;2024-02-23T10:21:07;4.60;99.90
74822;DHT22;63353;48.702;8.884;2024-02-23T10:23:33;4.70;99.90
74822;DHT22;63353;48.702;8.884;2024-02-23T10:25:59;4.70;99.90
74822;DHT22;63353;48.702;8.884;2024-02-23T10:28:24;4.70;99.90
74822;DHT22;63353;48.702;8.884;2024-02-23T10:30:50;4.70;99.90
74822;DHT22;63353;48.702;8.884;2024-02-23T10:33:19;4.80;99.90
74822;DHT22;63353;48.702;8.884;2024-02-23T10:35:50;5.00;99.90
74822;DHT22;63353;48.702;8.884;2024-02-23T10:38:21;5.00;99.90
74822;DHT22;63353;48.702;8.884;2024-02-23T10:40:49;5.10;99.90
74822;DHT22;63353;48.702;8.884;2024-02-23T10:43:19;5.20;99.90
74822;DHT22;63353;48.702;8.884;2024-02-23T10:45:46;5.30;99.90
74822;DHT22;63353;48.702;8.884;2024-02-23T10:48:15;5.50;99.90
74822;DHT22;63353;48.702;8.884;2024-02-23T10:50:41;5.50;99.90
74822;DHT22;63353;48.702;8.884;2024-02-23T10:53:10;5.50;99.90
74822;DHT22;63353;48.702;8.884;2024-02-23T10:55:37;5.60;99.90
74822;DHT22;63353;48.702;8.884;2024-02-23T10:58:09;5.80;99.90
74822;DHT22;63353;48.702;8.884;2024-02-23T11:00:37;5.90;99.90
74822;DHT22;63353;48.702;8.884;2024-02-23T11:03:03;6.00;99.90
74822;DHT22;63353;48.702;8.884;2024-02-23T11:05:31;6.00;99.90
74822;DHT22;63353;48.702;8.884;2024-02-23T11:07:56;6.00;99.90
74822;DHT22;63353;48.702;8.884;2024-02-23T11:10:23;6.10;99.90
74822;DHT22;63353;48.702;8.884;2024-02-23T11:13:00;6.00;99.90
74822;DHT22;63353;48.702;8.884;2024-02-23T11:15:27;6.10;99.90
74822;DHT22;63353;48.702;8.884;2024-02-23T11:17:53;6.10;99.90
74822;DHT22;63353;48.702;8.884;2024-02-23T11:20:20;6.20;99.90
74822;DHT22;63353;48.702;8.884;2024-02-23T11:22:51;6.30;99.90
74822;DHT22;63353;48.702;8.884;2024-02-23T11:25:18;6.50;99.90
74822;DHT22;63353;48.702;8.884;2024-02-23T11:27:44;6.70;99.90
74822;DHT22;63353;48.702;8.884;2024-02-23T11:30:17;7.00;99.90
74822;DHT22;63353;48.702;8.884;2024-02-23T11:32:43;7.20;99.90
74822;DHT22;63353;48.702;8.884;2024-02-23T11:35:14;7.30;99.90
74822;DHT22;63353;48.702;8.884;2024-02-23T11:40:25;7.20;99.90
74822;DHT22;63353;48.702;8.884;2024-02-23T11:42:51;7.20;99.90
74822;DHT22;63353;48.702;8.884;2024-02-23T11:45:17;7.30;99.90
74822;DHT22;63353;48.702;8.884;2024-02-23T11:47:42;7.40;99.90
74822;DHT22;63353;48.702;8.884;2024-02-23T11:50:09;7.40;99.90
74822;DHT22;63353;48.702;8.884;2024-02-23T11:52:39;7.30;99.90
74822;DHT22;63353;48.702;8.884;2024-02-23T11:55:06;7.10;99.90
74822;DHT22;63353;48.702;8.884;2024-02-23T11:57:33;7.20;99.90
74822;DHT22;63353;48.702;8.884;2024-02-23T12:00:01;7.40;99.90
74822;DHT22;63353;48.702;8.884;2024-02-23T12:02:27;7.40;99.90
74822;DHT22;63353;48.702;8.884;2024-02-23T12:04:53;7.40;99.90
74822;DHT22;63353;48.702;8.884;2024-02-23T12:07:18;7.40;99.90
74822;DHT22;63353;48.702;8.884;2024-02-23T12:09:46;7.50;99.90
74822;DHT22;63353;48.702;8.884;2024-02-23T12:12:12;7.40;99.90
74822;DHT22;63353;48.702;8.884;2024-02-23T12:14:39;7.20;99.90
74822;DHT22;63353;48.702;8.884;2024-02-23T12:17:07;7.40;99.90
74822;DHT22;63353;48.702;8.884;2024-02-23T12:19:40;7.50;99.90
74822;DHT22;63353;48.702;8.884;2024-02-23T12:22:06;7.80;99.90
74822;DHT22;63353;48.702;8.884;2024-02-23T12:24:31;8.10;99.90
74822;DHT22;63353;48.702;8.884;2024-02-23T12:26:57;8.20;99.90
74822;DHT22;63353;48.702;8.884;2024-02-23T12:29:24;8.00;99.90
74822;DHT22;63353;48.702;8.884;2024-02-23T12:31:50;7.60;99.90
74822;DHT22;63353;48.702;8.884;2024-02-23T12:34:17;7.50;99.90
74822;DHT22;63353;48.702;8.884;2024-02-23T12:36:43;7.30;99.90
74822;DHT22;63353;48.702;8.884;2024-02-23T12:39:11;7.20;99.90
74822;DHT22;63353;48.702;8.884;2024-02-23T12:41:37;7.00;99.90
74822;DHT22;63353;48.702;8.884;2024-02-23T12:44:02;6.90;99.90
74822;DHT22;63353;48.702;8.884;2024-02-23T12:46:28;6.90;99.90
74822;DHT22;63353;48.702;8.884;2024-02-23T12:48:54;6.80;99.90
74822;DHT22;63353;48.702;8.884;2024-02-23T12:51:19;6.80;99.90
74822;DHT22;63353;48.702;8.884;2024-02-23T12:53:50;6.90;99.90
74822;DHT22;63353;48.702;8.884;2024-02-23T12:56:15;6.90;99.90
74822;DHT22;63353;48.702;8.884;2024-02-23T12:58:43;6.80;99.90
74822;DHT22;63353;48.702;8.884;2024-02-23T13:01:10;6.70;99.90
74822;DHT22;63353;48.702;8.884;2024-02-23T13:03:36;6.70;99.90
74822;DHT22;63353;48.702;8.884;2024-02-23T13:06:04;6.70;99.90
74822;DHT22;63353;48.702;8.884;2024-02-23T13:08:33;6.70;99.90
74822;DHT22;63353;48.702;8.884;2024-02-23T13:11:00;6.70;99.90
74822;DHT22;63353;48.702;8.884;2024-02-23T13:13:26;6.90;99.90
74822;DHT22;63353;48.702;8.884;2024-02-23T13:15:52;6.90;99.90
74822;DHT22;63353;48.702;8.884;2024-02-23T13:18:18;7.00;99.90
74822;DHT22;63353;48.702;8.884;2024-02-23T13:20:45;6.80;99.90
74822;DHT22;63353;48.702;8.884;2024-02-23T13:23:11;6.70;99.90
74822;DHT22;63353;48.702;8.884;2024-02-23T13:25:40;6.70;99.90
74822;DHT22;63353;48.702;8.884;2024-02-23T13:28:07;6.70;99.90
74822;DHT22;63353;48.702;8.884;2024-02-23T13:30:35;6.70;99.90
74822;DHT22;63353;48.702;8.884;2024-02-23T13:33:01;6.70;99.90
74822;DHT22;63353;48.702;8.884;2024-02-23T13:35:27;6.70;99.90
74822;DHT22;63353;48.702;8.884;2024-02-23T13:37:53;6.80;99.90
74822;DHT22;63353;48.702;8.884;2024-02-23T13:40:19;7.00;99.90
74822;DHT22;63353;48.702;8.884;2024-02-23T13:42:45;7.10;99.90
74822;DHT22;63353;48.702;8.884;2024-02-23T13:45:14;7.20;99.90
74822;DHT22;63353;48.702;8.884;2024-02-23T13:47:41;7.30;99.90
74822;DHT22;63353;48.702;8.884;2024-02-23T13:50:07;7.50;99.90
74822;DHT22;63353;48.702;8.884;2024-02-23T13:52:33;7.70;99.90
74822;DHT22;63353;48.702;8.884;2024-02-23T13:54:59;7.90;99.90
74822;DHT22;63353;48.702;8.884;2024-02-23T13:57:25;7.90;99.90
74822;DHT22;63353;48.702;8.884;2024-02-23T13:59:51;7.90;99.90
74822;DHT22;63353;48.702;8.884;2024-02-23T14:02:24;8.30;99.90
74822;DHT22;63353;48.702;8.884;2024-02-23T14:04:50;9.50;99.90
74822;DHT22;63353;48.702;8.884;2024-02-23T14:07:16;11.10;99.90
74822;DHT22;63353;48.702;8.884;2024-02-23T14:09:42;11.00;99.90
74822;DHT22;63353;48.702;8.884;2024-02-23T14:12:08;10.30;99.90
74822;DHT22;63353;48.702;8.884;2024-02-23T14:14:34;9.60;99.90
74822;DHT22;63353;48.702;8.884;2024-02-23T14:17:01;8.90;99.90
74822;DHT22;63353;48.702;8.884;2024-02-23T14:19:27;8.70;99.90
74822;DHT22;63353;48.702;8.884;2024-02-23T14:21:53;8.50;99.90
74822;DHT22;63353;48.702;8.884;2024-02-23T14:24:18;8.30;99.90
74822;DHT22;63353;48.702;8.884;2024-02-23T14:26:44;8.20;99.90
74822;DHT22;63353;48.702;8.884;2024-02-23T14:29:10;7.90;99.90
74822;DHT22;63353;48.702;8.884;2024-02-23T14:31:35;7.80;99.90
74822;DHT22;63353;48.702;8.884;2024-02-23T14:34:01;7.70;99.90
74822;DHT22;63353;48.702;8.884;2024-02-23T14:36:31;7.50;99.90
74822;DHT22;63353;48.702;8.884;2024-02-23T14:38:59;7.40;99.90
74822;DHT22;63353;48.702;8.884;2024-02-23T14:41:25;7.30;99.90
74822;DHT22;63353;48.702;8.884;2024-02-23T14:43:50;7.20;99.90
74822;DHT22;63353;48.702;8.884;2024-02-23T14:46:16;7.00;99.90
74822;DHT22;63353;48.702;8.884;2024-02-23T14:48:41;6.80;99.90
74822;DHT22;63353;48.702;8.884;2024-02-23T14:51:07;6.70;99.90
74822;DHT22;63353;48.702;8.884;2024-02-23T14:53:34;6.60;99.90
74822;DHT22;63353;48.702;8.884;2024-02-23T14:56:00;6.60;99.90
74822;DHT22;63353;48.702;8.884;2024-02-23T14:58:25;6.60;99.90
74822;DHT22;63353;48.702;8.884;2024-02-23T15:00:51;6.50;99.90
74822;DHT22;63353;48.702;8.884;2024-02-23T15:03:17;6.50;99.90
74822;DHT22;63353;48.702;8.884;2024-02-23T15:05:42;6.50;99.90
74822;DHT22;63353;48.702;8.884;2024-02-23T15:08:08;6.50;99.90
74822;DHT22;63353;48.702;8.884;2024-02-23T15:10:34;6.40;99.90
74822;DHT22;63353;48.702;8.884;2024-02-23T15:13:00;6.40;99.90
74822;DHT22;63353;48.702;8.884;2024-02-23T15:15:25;6.20;99.90
74822;DHT22;63353;48.702;8.884;2024-02-23T15:17:51;6.10;99.90
74822;DHT22;63353;48.702;8.884;2024-02-23T15:20:18;6.10;99.90
74822;DHT22;63353;48.702;8.884;2024-02-23T15:22:43;6.30;99.90
74822;DHT22;63353;48.702;8.884;2024-02-23T15:25:12;6.90;99.90
74822;DHT22;63353;48.702;8.884;2024-02-23T15:27:38;8.20;99.90
74822;DHT22;63353;48.702;8.884;2024-02-23T15:30:06;9.40;99.90
74822;DHT22;63353;48.702;8.884;2024-02-23T15:32:36;10.50;99.90
74822;DHT22;63353;48.702;8.884;2024-02-23T15:35:02;11.20;99.90
74822;DHT22;63353;48.702;8.884;2024-02-23T15:37:29;11.20;99.90
74822;DHT22;63353;48.702;8.884;2024-02-23T15:39:55;10.70;99.90
74822;DHT22;63353;48.702;8.884;2024-02-23T15:42:20;10.20;99.90